New Alexandria, Pennsylvania
Current Conditions -  °F | °C
As of 10:35 AM on Friday 24 Oct 2014 (Local Time) from KIDI Reporting Station
Overcast Overcast  
Wind Chill: 46°   Ceiling: 1700
Heat Index: 48°   Visibility: 10mi
Dew Point: 41°   Wind: 6mph
Humidity: 76%   Direction: 300°WNW
Pressure: 30.12"   Gusts: NA
Location:  40.4°N, 79.42°W
Report Text: KIDI 241435Z AUTO 30005KT 10SM OVC017 09/05 A3012 RMK A01
Loading
Personal Weather Stations






























Interactive Weather Map
Tropical Storm Tracking
New forecast layout! Learn more

10-Day Weather Forecast

Advertisements
Track Severe Weather on mobile